Sheridan, WY

11:06 AM MST on February 09, 2016 (GMT -0700)
South Sheridan | | Change Station
CLOSE
Current Station
Personal Weather Station
Location: Sheridan, WY
Elevation: 3770 ft
Nearby Weather Stations

Elev 3770 ft 44.79 °N, 106.95 °W | Updated 21 seconds ago

Clear
Clear
55.8 °F
Feels Like 55.8 °F
N
4.5
Wind Variable Wind from NNW
Gusts 7.4 mph

Today
High -- | Low -- °F
--% Chance of Precip.
Yesterday
High -- | Low -- °F
Precip. -- in
Pressure 30.26 in
Visibility 25.0 miles
Clouds Clear
Dew Point 28 °F
Humidity 34%
Rainfall 0.00 in
Snow Depth Not available.
7:17 AM 5:27 PM
New Moon, 2% visible
METAR KSHR 091755Z 34011KT 25SM SKC 12/M04 A3026
Pressure 30.26 in
Visibility 25.0 miles
Clouds Clear
Dew Point 28 °F
Humidity 34%
Rainfall 0.00 in
Snow Depth Not available.
7:17 AM 5:27 PM
New Moon, 2% visible
METAR KSHR 091755Z 34011KT 25SM SKC 12/M04 A3026

10-Day Weather Forecast

Almanac

Astronomy

Feb. 09, 2016 Rise Set
Actual Time
Civil Twilight
Nautical Twilight
Astronomical Twilight
Moon
Length of Visible Light
Length of Day
Tomorrow will be .
, % of the Moon is Illuminated

Today's Extremes

State Highs State Lows

Community

WunderPhotos

Upload Photos

1,891,650 photos uploaded!

WunderBlog® & News

Nearby

Air Quality

  Air Quality AQ Index Pollutant
Not available.

Snow Depth

Station Depth Elevation

Earthquake Activity

City Distance Mag. Time & Date
Minimum magnitude displayed is 2.5.

Coastal Water Temperatures

Place Temperature

Stations

Nearby Weather Stations

Station Location Temp. Windchill Dew Point Humidity Wind Precip. Elev Updated Type
                   

Watches & Warnings

There are currently no watches in effect.